createdAt,value
2019-02-15T00:00:12.658Z,3.00
2019-02-15T00:02:41.093Z,2.90
2019-02-15T00:05:09.592Z,2.90
2019-02-15T00:07:38.024Z,2.80
2019-02-15T00:10:06.794Z,2.80
2019-02-15T00:12:35.220Z,2.80
2019-02-15T00:15:03.811Z,2.70
2019-02-15T00:17:51.596Z,2.80
2019-02-15T00:20:21.739Z,2.70
2019-02-15T00:22:50.240Z,2.50
2019-02-15T00:25:18.660Z,2.60
2019-02-15T00:27:47.100Z,2.70
2019-02-15T00:30:15.562Z,2.70
2019-02-15T00:32:44.061Z,2.60
2019-02-15T00:35:12.464Z,2.50
2019-02-15T00:37:42.804Z,2.60
2019-02-15T00:40:11.288Z,2.60
2019-02-15T00:42:39.728Z,2.60
2019-02-15T00:45:09.820Z,2.50
2019-02-15T00:47:39.868Z,2.50
2019-02-15T00:50:16.263Z,2.60
2019-02-15T00:52:55.148Z,2.60
2019-02-15T00:55:37.094Z,2.50
2019-02-15T00:58:07.169Z,2.50
2019-02-15T01:00:37.354Z,2.40
2019-02-15T01:03:25.017Z,2.30
2019-02-15T01:05:58.169Z,2.40
2019-02-15T01:08:40.462Z,2.50
2019-02-15T01:11:26.538Z,2.40
2019-02-15T01:13:54.988Z,2.40
2019-02-15T01:16:23.412Z,2.30
2019-02-15T01:18:51.848Z,2.30
2019-02-15T01:21:20.261Z,2.20
2019-02-15T01:23:48.671Z,2.20
2019-02-15T01:26:21.445Z,2.20
2019-02-15T01:28:57.239Z,2.20
2019-02-15T01:31:27.337Z,2.20
2019-02-15T01:34:03.449Z,2.30
2019-02-15T01:36:33.531Z,2.30
2019-02-15T01:39:03.659Z,2.30
2019-02-15T01:41:45.621Z,2.20
2019-02-15T01:44:15.901Z,2.20
2019-02-15T01:46:45.957Z,2.20
2019-02-15T01:49:14.439Z,2.20
2019-02-15T01:51:43.018Z,2.20
2019-02-15T01:54:11.459Z,2.20
2019-02-15T01:56:39.940Z,2.20
2019-02-15T01:59:08.501Z,2.20
2019-02-15T02:01:37.017Z,2.10
2019-02-15T02:04:05.505Z,2.10
2019-02-15T02:06:34.007Z,2.10
2019-02-15T02:09:02.449Z,2.20
2019-02-15T02:11:31.123Z,2.20
2019-02-15T02:13:59.534Z,2.10
2019-02-15T02:16:28.017Z,2.10
2019-02-15T02:18:56.449Z,2.00
2019-02-15T02:21:24.961Z,2.00
2019-02-15T02:23:53.393Z,2.10
2019-02-15T02:26:21.833Z,1.90
2019-02-15T02:28:50.305Z,2.00
2019-02-15T02:31:19.025Z,2.00
2019-02-15T02:33:47.520Z,2.00
2019-02-15T02:36:16.223Z,1.90
2019-02-15T02:38:44.632Z,2.00
2019-02-15T02:41:13.045Z,1.90
2019-02-15T02:43:41.512Z,2.00
2019-02-15T02:46:09.975Z,1.90
2019-02-15T02:48:38.446Z,1.80
2019-02-15T02:51:06.861Z,1.70
2019-02-15T02:53:35.307Z,1.70
2019-02-15T02:56:03.779Z,1.70
2019-02-15T02:58:32.236Z,1.80
2019-02-15T03:01:00.644Z,1.70
2019-02-15T03:03:29.144Z,1.70
2019-02-15T03:05:57.597Z,1.60
2019-02-15T03:08:26.010Z,1.70
2019-02-15T03:10:54.515Z,1.70
2019-02-15T03:13:22.969Z,1.70
2019-02-15T03:15:51.358Z,1.60
2019-02-15T03:18:19.870Z,1.60
2019-02-15T03:20:48.301Z,1.70
2019-02-15T03:23:16.723Z,1.60
2019-02-15T03:25:45.155Z,1.60
2019-02-15T03:28:13.654Z,1.60
2019-02-15T03:30:42.091Z,1.60
2019-02-15T03:33:10.541Z,1.60
2019-02-15T03:35:40.584Z,1.60
2019-02-15T03:38:10.651Z,1.60
2019-02-15T03:40:40.182Z,1.60
2019-02-15T03:43:08.659Z,1.60
2019-02-15T03:45:37.105Z,1.60
2019-02-15T03:48:05.529Z,1.60
2019-02-15T03:50:33.948Z,1.60
2019-02-15T03:53:02.444Z,1.50
2019-02-15T03:55:30.863Z,1.50
2019-02-15T03:57:59.389Z,1.50
2019-02-15T04:00:27.791Z,1.50
2019-02-15T04:02:56.229Z,1.40
2019-02-15T04:05:24.727Z,1.40
2019-02-15T04:07:53.166Z,1.50
2019-02-15T04:10:21.651Z,1.40
2019-02-15T04:12:50.105Z,1.30
2019-02-15T04:15:18.595Z,1.30
2019-02-15T04:17:47.018Z,1.30
2019-02-15T04:20:15.473Z,1.30
2019-02-15T04:22:43.881Z,1.30
2019-02-15T04:25:13.099Z,1.30
2019-02-15T04:27:41.491Z,1.30
2019-02-15T04:30:11.164Z,1.30
2019-02-15T04:32:39.571Z,1.30
2019-02-15T04:35:09.134Z,1.30
2019-02-15T04:37:37.574Z,1.20
2019-02-15T04:40:08.976Z,1.30
2019-02-15T04:42:37.429Z,1.20
2019-02-15T04:45:07.781Z,1.20
2019-02-15T04:47:37.125Z,1.30
2019-02-15T04:50:07.611Z,1.30
2019-02-15T04:52:36.053Z,1.20
2019-02-15T04:55:05.682Z,1.20
2019-02-15T04:57:35.005Z,1.20
2019-02-15T05:00:03.497Z,1.30
2019-02-15T05:02:31.955Z,1.30
2019-02-15T05:05:00.362Z,1.30
2019-02-15T05:07:28.819Z,1.40
2019-02-15T05:09:57.274Z,1.30
2019-02-15T05:12:25.768Z,1.30
2019-02-15T05:14:54.196Z,1.30
2019-02-15T05:17:22.691Z,1.40
2019-02-15T05:19:51.166Z,1.60
2019-02-15T05:22:19.640Z,2.20
2019-02-15T05:24:48.080Z,2.50
2019-02-15T05:27:16.577Z,2.40
2019-02-15T05:29:45.105Z,2.40
2019-02-15T05:32:13.622Z,2.40
2019-02-15T05:34:42.077Z,2.30
2019-02-15T05:37:10.524Z,2.40
2019-02-15T05:39:38.945Z,2.20
2019-02-15T05:42:07.391Z,2.10
2019-02-15T05:44:35.887Z,2.20
2019-02-15T05:47:04.316Z,2.10
2019-02-15T05:49:32.756Z,2.20
2019-02-15T05:52:01.208Z,2.40
2019-02-15T05:54:29.679Z,2.50
2019-02-15T05:56:58.131Z,2.50
2019-02-15T05:59:26.541Z,2.50
2019-02-15T06:01:54.976Z,2.60
2019-02-15T06:04:23.414Z,2.60
2019-02-15T06:06:51.836Z,2.50
2019-02-15T06:09:20.283Z,2.50
2019-02-15T06:11:48.699Z,2.40
2019-02-15T06:14:17.120Z,2.60
2019-02-15T06:16:45.585Z,2.60
2019-02-15T06:19:14.110Z,2.30
2019-02-15T06:21:42.691Z,2.30
2019-02-15T06:24:11.180Z,2.20
2019-02-15T06:26:40.107Z,2.20
2019-02-15T06:29:08.532Z,2.20
2019-02-15T06:31:36.989Z,2.00
2019-02-15T06:34:05.415Z,2.00
2019-02-15T06:36:35.262Z,2.20
2019-02-15T06:39:04.990Z,2.30
2019-02-15T06:41:33.407Z,2.10
2019-02-15T06:44:01.861Z,2.20
2019-02-15T06:46:30.364Z,2.10
2019-02-15T06:48:58.840Z,2.30
2019-02-15T06:51:31.304Z,2.30
2019-02-15T06:54:05.522Z,2.60
2019-02-15T06:56:40.920Z,2.60
2019-02-15T06:59:30.382Z,2.40
2019-02-15T07:02:19.548Z,2.30
2019-02-15T07:05:06.666Z,2.00
2019-02-15T07:07:35.170Z,1.70
2019-02-15T07:10:04.366Z,1.60
2019-02-15T07:12:35.892Z,1.70
2019-02-15T07:15:09.472Z,1.90
2019-02-15T07:17:46.026Z,2.00
2019-02-15T07:20:16.755Z,2.10
2019-02-15T07:22:47.213Z,2.20
2019-02-15T07:25:16.004Z,2.30
2019-02-15T07:27:44.724Z,2.40
2019-02-15T07:30:18.278Z,2.30
2019-02-15T07:32:52.721Z,2.30
2019-02-15T07:35:26.350Z,2.20
2019-02-15T07:37:58.888Z,2.20
2019-02-15T07:40:37.556Z,2.20
2019-02-15T07:42:57.549Z,2.30
2019-02-15T07:45:27.848Z,2.40
2019-02-15T07:48:00.224Z,2.50
2019-02-15T07:50:33.625Z,2.60
2019-02-15T07:53:02.052Z,2.70
2019-02-15T07:55:30.565Z,2.70
2019-02-15T07:58:01.757Z,2.80
2019-02-15T08:00:37.058Z,2.90
2019-02-15T08:03:08.214Z,2.90
2019-02-15T08:05:36.630Z,3.10
2019-02-15T08:08:05.112Z,3.20
2019-02-15T08:10:39.503Z,3.30
2019-02-15T08:13:10.768Z,3.50
2019-02-15T08:15:51.335Z,3.60
2019-02-15T08:18:18.624Z,3.70
2019-02-15T08:20:53.668Z,3.70
2019-02-15T08:23:25.462Z,3.70
2019-02-15T08:25:54.668Z,3.80
2019-02-15T08:28:23.520Z,3.90
2019-02-15T08:30:54.702Z,4.00
2019-02-15T08:33:27.368Z,4.10
2019-02-15T08:36:00.530Z,4.20
2019-02-15T08:38:30.732Z,4.30
2019-02-15T08:40:59.352Z,4.40
2019-02-15T08:43:29.209Z,4.50
2019-02-15T08:46:02.752Z,4.70
2019-02-15T08:48:36.114Z,4.70
2019-02-15T08:50:59.905Z,4.80
2019-02-15T08:53:30.179Z,5.00
2019-02-15T08:56:03.643Z,5.20
2019-02-15T08:58:36.165Z,5.30
2019-02-15T09:01:09.526Z,5.50
2019-02-15T09:03:34.823Z,5.50
2019-02-15T09:06:04.354Z,5.60
2019-02-15T09:08:36.554Z,5.70
2019-02-15T09:11:04.281Z,5.90
2019-02-15T09:13:32.765Z,6.00
2019-02-15T09:16:10.362Z,6.20
2019-02-15T09:18:39.836Z,6.20
2019-02-15T09:21:12.657Z,6.30
2019-02-15T09:23:45.907Z,6.40
2019-02-15T09:26:24.463Z,6.50
2019-02-15T09:28:55.894Z,6.70
2019-02-15T09:31:31.501Z,6.70
2019-02-15T09:34:04.718Z,6.90
2019-02-15T09:36:37.609Z,7.00
2019-02-15T09:39:10.013Z,7.00
2019-02-15T09:41:38.516Z,7.20
2019-02-15T09:44:07.187Z,7.20
2019-02-15T09:46:38.991Z,7.30
2019-02-15T09:49:13.365Z,7.40
2019-02-15T09:51:47.115Z,7.50
2019-02-15T09:54:20.589Z,7.50
2019-02-15T09:56:53.263Z,7.60
2019-02-15T09:59:21.677Z,7.80
2019-02-15T10:01:50.125Z,7.90
2019-02-15T10:04:22.455Z,7.90
2019-02-15T10:06:55.122Z,8.00
2019-02-15T10:09:28.496Z,8.10
2019-02-15T10:11:58.564Z,8.30
2019-02-15T10:14:27.054Z,8.20
2019-02-15T10:16:57.191Z,8.30
2019-02-15T10:19:29.758Z,8.50
2019-02-15T10:22:02.807Z,8.60
2019-02-15T10:24:30.979Z,8.60
2019-02-15T10:26:59.377Z,8.80
2019-02-15T10:29:31.741Z,8.90
2019-02-15T10:32:05.298Z,8.90
2019-02-15T10:34:38.370Z,9.10
2019-02-15T10:37:06.873Z,9.10
2019-02-15T10:39:35.479Z,9.40
2019-02-15T10:42:05.423Z,9.40
2019-02-15T10:44:34.493Z,9.60
2019-02-15T10:47:03.667Z,9.60
2019-02-15T10:49:33.735Z,9.80
2019-02-15T10:52:06.524Z,10.10
2019-02-15T10:54:35.874Z,10.10
2019-02-15T10:57:04.661Z,10.20
2019-02-15T10:59:34.638Z,10.20
2019-02-15T11:02:07.033Z,10.30
2019-02-15T11:04:36.799Z,10.50
2019-02-15T11:07:05.719Z,10.60
2019-02-15T11:09:35.872Z,10.70
2019-02-15T11:12:09.510Z,10.80
2019-02-15T11:14:41.981Z,10.80
2019-02-15T11:17:11.590Z,10.90
2019-02-15T11:19:40.074Z,10.90
2019-02-15T11:22:09.409Z,11.00
2019-02-15T11:24:43.310Z,11.00
2019-02-15T11:27:12.529Z,11.10
2019-02-15T11:29:41.129Z,11.30
2019-02-15T11:32:11.470Z,11.20
2019-02-15T11:34:45.934Z,11.30
2019-02-15T11:37:18.261Z,11.40
2019-02-15T11:39:57.638Z,11.40
2019-02-15T11:42:27.801Z,11.50
2019-02-15T11:45:00.977Z,11.50
2019-02-15T11:47:31.267Z,11.60
2019-02-15T11:49:59.959Z,11.70
2019-02-15T11:52:28.410Z,11.70
2019-02-15T11:55:01.761Z,11.80
2019-02-15T11:57:36.564Z,11.80
2019-02-15T12:00:14.278Z,11.90
2019-02-15T12:02:44.837Z,12.00
2019-02-15T12:05:16.324Z,12.00
2019-02-15T12:07:44.742Z,12.20
2019-02-15T12:10:13.371Z,11.90
2019-02-15T12:12:47.764Z,12.10
2019-02-15T12:15:19.245Z,12.30
2019-02-15T12:17:51.321Z,12.30
2019-02-15T12:20:19.784Z,12.50
2019-02-15T12:22:48.619Z,12.60
2019-02-15T12:25:20.317Z,12.40
2019-02-15T12:27:53.492Z,12.40
2019-02-15T12:30:23.632Z,12.40
2019-02-15T12:32:52.460Z,12.50
2019-02-15T12:35:21.120Z,12.60
2019-02-15T12:37:54.603Z,12.70
2019-02-15T12:40:27.062Z,12.70
2019-02-15T12:42:55.842Z,12.70
2019-02-15T12:45:24.622Z,12.60
2019-02-15T12:47:55.514Z,12.70
2019-02-15T12:50:30.313Z,12.90
2019-02-15T12:53:04.478Z,13.00
2019-02-15T12:55:39.764Z,13.10
2019-02-15T12:58:12.324Z,13.10
2019-02-15T13:00:47.696Z,13.20
2019-02-15T13:03:18.378Z,13.20
2019-02-15T13:05:48.288Z,13.20
2019-02-15T13:08:16.992Z,13.40
2019-02-15T13:10:46.756Z,13.30
2019-02-15T13:13:20.832Z,13.30
2019-02-15T13:15:53.119Z,13.30
2019-02-15T13:18:20.840Z,13.40
2019-02-15T13:20:49.299Z,13.50
2019-02-15T13:23:23.698Z,13.50
2019-02-15T13:25:56.428Z,13.60
2019-02-15T13:28:28.917Z,13.70
2019-02-15T13:31:06.063Z,13.70
2019-02-15T13:33:37.914Z,13.70
2019-02-15T13:36:10.805Z,13.70
2019-02-15T13:38:46.464Z,13.80
2019-02-15T13:41:19.476Z,13.90
2019-02-15T13:43:53.992Z,13.80
2019-02-15T13:46:24.038Z,14.00
2019-02-15T13:48:52.837Z,14.00
2019-02-15T13:51:21.671Z,14.00
2019-02-15T13:53:54.244Z,14.10
2019-02-15T13:56:29.779Z,14.10
2019-02-15T13:58:54.540Z,14.10
2019-02-15T14:01:24.045Z,14.10
2019-02-15T14:03:55.834Z,14.20
2019-02-15T14:06:28.558Z,14.20
2019-02-15T14:09:02.438Z,14.20
2019-02-15T14:11:38.735Z,14.20
2019-02-15T14:14:09.775Z,14.30
2019-02-15T14:16:38.319Z,14.30
2019-02-15T14:19:06.782Z,14.40
2019-02-15T14:21:44.305Z,14.40
2019-02-15T14:24:13.693Z,14.40
2019-02-15T14:26:46.252Z,14.50
2019-02-15T14:29:19.333Z,14.40
2019-02-15T14:31:47.752Z,14.40
2019-02-15T14:34:16.151Z,14.40
2019-02-15T14:36:51.543Z,14.40
2019-02-15T14:39:19.944Z,14.40
2019-02-15T14:41:48.403Z,14.50
2019-02-15T14:44:16.803Z,14.50
2019-02-15T14:46:46.101Z,14.50
2019-02-15T14:49:14.546Z,14.60
2019-02-15T14:51:42.960Z,14.60
2019-02-15T14:54:11.397Z,14.50
2019-02-15T14:56:39.872Z,14.50
2019-02-15T14:59:08.357Z,14.40
2019-02-15T15:01:36.827Z,14.50
2019-02-15T15:04:05.307Z,14.50
2019-02-15T15:06:33.766Z,14.50
2019-02-15T15:09:02.228Z,14.60
2019-02-15T15:11:31.225Z,14.50
2019-02-15T15:14:00.749Z,14.40
2019-02-15T15:16:29.166Z,14.40
2019-02-15T15:18:57.620Z,14.40
2019-02-15T15:21:26.051Z,14.40
2019-02-15T15:23:54.502Z,14.30
2019-02-15T15:26:22.915Z,14.30
2019-02-15T15:28:51.387Z,14.30
2019-02-15T15:31:21.864Z,14.30
2019-02-15T15:33:50.009Z,14.20
2019-02-15T15:36:18.588Z,14.30
2019-02-15T15:38:47.082Z,14.30
2019-02-15T15:41:15.553Z,14.30
2019-02-15T15:43:44.001Z,14.20
2019-02-15T15:46:12.425Z,14.20
2019-02-15T15:48:40.943Z,14.20
2019-02-15T15:51:09.361Z,14.10
2019-02-15T15:53:37.801Z,14.10
2019-02-15T15:56:06.239Z,14.00
2019-02-15T15:58:34.667Z,14.00
2019-02-15T16:01:03.111Z,13.90
2019-02-15T16:03:31.511Z,13.90
2019-02-15T16:06:00.386Z,13.80
2019-02-15T16:08:30.527Z,13.70
2019-02-15T16:10:59.126Z,13.80
2019-02-15T16:13:27.702Z,13.80
2019-02-15T16:15:56.145Z,13.60
2019-02-15T16:18:32.886Z,13.60
2019-02-15T16:20:54.767Z,13.60
2019-02-15T16:23:23.165Z,13.40
2019-02-15T16:25:51.636Z,13.40
2019-02-15T16:28:20.066Z,13.30
2019-02-15T16:30:48.485Z,13.20
2019-02-15T16:33:16.921Z,13.10
2019-02-15T16:35:45.341Z,13.00
2019-02-15T16:38:13.809Z,12.90
2019-02-15T16:40:42.301Z,12.90
2019-02-15T16:43:10.764Z,12.90
2019-02-15T16:45:39.179Z,12.80
2019-02-15T16:48:07.640Z,12.80
2019-02-15T16:50:36.074Z,12.80
2019-02-15T16:53:04.509Z,12.60
2019-02-15T16:55:32.967Z,12.70
2019-02-15T16:58:01.685Z,12.50
2019-02-15T17:00:30.149Z,12.50
2019-02-15T17:02:58.921Z,12.40
2019-02-15T17:05:27.444Z,12.50
2019-02-15T17:07:55.966Z,12.30
2019-02-15T17:10:24.584Z,12.30
2019-02-15T17:12:53.067Z,11.90
2019-02-15T17:15:21.500Z,11.80
2019-02-15T17:17:49.911Z,11.90
2019-02-15T17:20:18.365Z,11.80
2019-02-15T17:22:46.795Z,11.70
2019-02-15T17:25:15.227Z,11.60
2019-02-15T17:27:43.674Z,11.50
2019-02-15T17:30:12.470Z,11.30
2019-02-15T17:32:40.906Z,11.20
2019-02-15T17:35:10.500Z,11.00
2019-02-15T17:37:38.910Z,10.90
2019-02-15T17:40:15.872Z,10.90
2019-02-15T17:42:44.291Z,10.90
2019-02-15T17:45:12.741Z,10.80
2019-02-15T17:47:41.308Z,10.80
2019-02-15T17:50:10.889Z,10.90
2019-02-15T17:52:39.429Z,10.80
2019-02-15T17:55:10.026Z,10.80
2019-02-15T17:57:38.647Z,10.90
2019-02-15T18:00:12.409Z,10.70
2019-02-15T18:02:40.811Z,10.60
2019-02-15T18:05:11.926Z,10.30
2019-02-15T18:07:40.383Z,10.20
2019-02-15T18:10:08.928Z,10.00
2019-02-15T18:12:37.377Z,9.90
2019-02-15T18:15:06.464Z,9.80
2019-02-15T18:17:34.904Z,9.70
2019-02-15T18:20:03.974Z,9.60
2019-02-15T18:22:32.490Z,9.70
2019-02-15T18:25:00.919Z,9.60
2019-02-15T18:27:29.326Z,9.50
2019-02-15T18:29:57.777Z,9.60
2019-02-15T18:32:26.285Z,9.60
2019-02-15T18:34:54.735Z,9.80
2019-02-15T18:37:23.186Z,9.80
2019-02-15T18:39:53.164Z,9.70
2019-02-15T18:42:21.654Z,9.70
2019-02-15T18:44:50.081Z,9.60
2019-02-15T18:47:18.506Z,9.60
2019-02-15T18:49:47.006Z,9.40
2019-02-15T18:52:15.424Z,9.20
2019-02-15T18:54:43.872Z,9.20
2019-02-15T18:57:12.315Z,9.00
2019-02-15T18:59:40.726Z,9.00
2019-02-15T19:02:09.218Z,8.90
2019-02-15T19:04:37.666Z,8.70
2019-02-15T19:07:06.100Z,8.70
2019-02-15T19:09:34.540Z,8.70
2019-02-15T19:12:02.993Z,8.60
2019-02-15T19:14:31.468Z,8.50
2019-02-15T19:16:59.890Z,8.40
2019-02-15T19:19:29.340Z,8.30
2019-02-15T19:21:58.048Z,8.20
2019-02-15T19:24:26.459Z,8.10
2019-02-15T19:26:54.962Z,8.00
2019-02-15T19:29:23.382Z,7.90
2019-02-15T19:31:51.826Z,7.70
2019-02-15T19:34:20.261Z,7.70
2019-02-15T19:36:48.714Z,7.60
2019-02-15T19:39:17.160Z,7.60
2019-02-15T19:41:45.691Z,7.60
2019-02-15T19:44:14.145Z,7.50
2019-02-15T19:46:42.574Z,7.50
2019-02-15T19:49:11.804Z,7.40
2019-02-15T19:51:40.313Z,7.40
2019-02-15T19:54:08.761Z,7.50
2019-02-15T19:56:38.216Z,7.90
2019-02-15T19:59:06.674Z,7.70
2019-02-15T20:01:35.162Z,7.50
2019-02-15T20:04:03.599Z,7.30
2019-02-15T20:06:32.124Z,7.20
2019-02-15T20:09:00.621Z,7.10
2019-02-15T20:11:29.072Z,6.90
2019-02-15T20:13:59.946Z,6.90
2019-02-15T20:16:28.009Z,6.90
2019-02-15T20:18:56.421Z,6.80
2019-02-15T20:21:24.889Z,6.80
2019-02-15T20:23:53.316Z,6.80
2019-02-15T20:26:21.754Z,6.70
2019-02-15T20:28:50.170Z,6.60
2019-02-15T20:31:18.625Z,6.50
2019-02-15T20:33:47.042Z,6.50
2019-02-15T20:36:15.467Z,6.50
2019-02-15T20:38:43.906Z,6.50
2019-02-15T20:41:12.340Z,6.50
2019-02-15T20:43:40.787Z,6.50
2019-02-15T20:46:09.185Z,6.40
2019-02-15T20:48:37.643Z,7.00
2019-02-15T20:51:06.091Z,7.10
2019-02-15T20:53:34.541Z,7.10
2019-02-15T20:56:02.956Z,6.70
2019-02-15T20:58:31.412Z,6.40
2019-02-15T21:00:59.831Z,6.20
2019-02-15T21:03:28.285Z,6.10
2019-02-15T21:05:56.739Z,6.10
2019-02-15T21:08:26.548Z,6.00
2019-02-15T21:10:55.693Z,5.90
2019-02-15T21:13:24.628Z,6.00
2019-02-15T21:15:53.066Z,6.40
2019-02-15T21:18:21.549Z,6.90
2019-02-15T21:20:49.971Z,6.60
2019-02-15T21:23:18.415Z,6.30
2019-02-15T21:25:46.917Z,6.10
2019-02-15T21:28:17.340Z,5.90
2019-02-15T21:30:45.768Z,5.80
2019-02-15T21:33:15.151Z,5.70
2019-02-15T21:35:49.032Z,5.60
2019-02-15T21:38:21.119Z,5.60
2019-02-15T21:40:49.608Z,5.50
2019-02-15T21:43:18.042Z,5.60
2019-02-15T21:45:46.495Z,5.50
2019-02-15T21:48:15.504Z,5.50
2019-02-15T21:50:43.940Z,5.50
2019-02-15T21:53:12.363Z,5.50
2019-02-15T21:55:40.810Z,5.40
2019-02-15T21:58:09.254Z,5.40
2019-02-15T22:00:37.843Z,5.30
2019-02-15T22:03:06.413Z,5.30
2019-02-15T22:05:34.842Z,5.20
2019-02-15T22:08:03.365Z,5.20
2019-02-15T22:10:31.782Z,5.20
2019-02-15T22:13:00.189Z,5.20
2019-02-15T22:15:28.661Z,5.20
2019-02-15T22:17:57.134Z,5.40
2019-02-15T22:20:26.934Z,5.30
2019-02-15T22:22:55.642Z,5.30
2019-02-15T22:25:24.060Z,5.40
2019-02-15T22:27:52.504Z,5.40
2019-02-15T22:30:21.090Z,5.50
2019-02-15T22:32:49.641Z,5.40
2019-02-15T22:35:18.070Z,5.50
2019-02-15T22:37:47.526Z,5.50
2019-02-15T22:40:32.932Z,5.40
2019-02-15T22:43:15.997Z,5.50
2019-02-15T22:45:44.468Z,5.40
2019-02-15T22:48:13.975Z,5.50
2019-02-15T22:50:42.402Z,5.50
2019-02-15T22:53:10.837Z,5.40
2019-02-15T22:55:39.301Z,5.30
2019-02-15T22:58:07.739Z,5.30
2019-02-15T23:00:52.312Z,5.20
2019-02-15T23:03:23.167Z,5.20
2019-02-15T23:05:51.666Z,5.20
2019-02-15T23:08:20.113Z,5.10
2019-02-15T23:10:48.665Z,5.20
2019-02-15T23:13:17.108Z,5.20
2019-02-15T23:15:45.517Z,5.30
2019-02-15T23:18:13.944Z,5.00
2019-02-15T23:20:45.131Z,4.90
2019-02-15T23:23:12.522Z,4.80
2019-02-15T23:25:41.085Z,4.90
2019-02-15T23:28:09.585Z,4.80
2019-02-15T23:30:38.139Z,4.80
2019-02-15T23:33:06.597Z,4.70
2019-02-15T23:35:35.050Z,4.60
2019-02-15T23:38:03.498Z,4.60
2019-02-15T23:40:31.944Z,5.10
2019-02-15T23:43:00.370Z,5.60
2019-02-15T23:45:28.811Z,5.80
2019-02-15T23:47:57.225Z,5.90
2019-02-15T23:50:25.639Z,6.00
2019-02-15T23:52:54.116Z,5.80
2019-02-15T23:55:22.597Z,6.00
2019-02-15T23:57:51.044Z,6.10
